createdAt,value
2022-12-15T00:02:19.486Z,30.23
2022-12-15T00:05:07.572Z,31.25
2022-12-15T00:07:53.474Z,30.95
2022-12-15T00:10:38.867Z,30.15
2022-12-15T00:13:31.346Z,32.45
2022-12-15T00:16:16.939Z,31.17
2022-12-15T00:19:01.900Z,31.17
2022-12-15T00:21:47.216Z,30.83
2022-12-15T00:24:32.171Z,30.98
2022-12-15T00:27:17.037Z,33.20
2022-12-15T00:30:02.476Z,32.03
2022-12-15T00:32:50.098Z,34.92
2022-12-15T00:35:35.455Z,32.72
2022-12-15T00:38:27.927Z,34.95
2022-12-15T00:40:59.155Z,36.15
2022-12-15T00:43:29.712Z,35.05
2022-12-15T00:46:15.385Z,36.63
2022-12-15T00:48:44.560Z,35.63
2022-12-15T00:51:11.765Z,38.67
2022-12-15T00:53:56.935Z,37.53
2022-12-15T00:56:42.590Z,38.92
2022-12-15T00:59:27.967Z,37.30
2022-12-15T01:02:13.318Z,37.47
2022-12-15T01:04:58.537Z,40.30
2022-12-15T01:07:43.845Z,43.22
2022-12-15T01:10:34.784Z,42.58
2022-12-15T01:13:19.892Z,40.30
2022-12-15T01:16:04.759Z,38.70
2022-12-15T01:18:52.129Z,40.97
2022-12-15T01:21:24.629Z,39.88
2022-12-15T01:23:52.286Z,40.65
2022-12-15T01:26:19.122Z,43.63
2022-12-15T01:28:45.671Z,39.72
2022-12-15T01:31:12.383Z,40.55
2022-12-15T01:33:43.664Z,41.53
2022-12-15T01:36:11.041Z,40.83
2022-12-15T01:38:37.671Z,42.15
2022-12-15T01:41:09.374Z,41.25
2022-12-15T01:43:38.029Z,44.13
2022-12-15T01:46:34.153Z,44.47
2022-12-15T01:49:15.757Z,43.78
2022-12-15T01:51:50.366Z,42.53
2022-12-15T01:54:26.262Z,42.78
2022-12-15T01:56:56.753Z,43.38
2022-12-15T01:59:30.208Z,42.40
2022-12-15T02:01:57.013Z,41.22
2022-12-15T02:04:24.468Z,41.03
2022-12-15T02:06:53.010Z,43.85
2022-12-15T02:09:23.527Z,41.15
2022-12-15T02:12:25.542Z,42.97
2022-12-15T02:14:54.954Z,40.78
2022-12-15T02:17:39.833Z,42.42
2022-12-15T02:20:18.060Z,39.92
2022-12-15T02:22:56.933Z,44.22
2022-12-15T02:25:51.163Z,39.63
2022-12-15T02:28:31.782Z,39.33
2022-12-15T02:31:28.063Z,42.30
2022-12-15T02:34:03.909Z,42.05
2022-12-15T02:36:38.642Z,42.42
2022-12-15T02:39:06.072Z,40.97
2022-12-15T02:41:35.374Z,42.20
2022-12-15T02:44:09.856Z,42.17
2022-12-15T02:47:13.232Z,39.70
2022-12-15T02:49:54.918Z,41.10
2022-12-15T02:52:40.002Z,42.13
2022-12-15T02:55:24.799Z,41.03
2022-12-15T02:57:58.309Z,41.78
2022-12-15T03:00:24.797Z,41.42
2022-12-15T03:02:54.705Z,42.75
2022-12-15T03:05:22.988Z,42.30
2022-12-15T03:07:54.278Z,42.30
2022-12-15T03:10:24.205Z,42.97
2022-12-15T03:12:51.384Z,41.92
2022-12-15T03:15:18.775Z,43.90
2022-12-15T03:17:45.330Z,46.13
2022-12-15T03:20:12.043Z,42.40
2022-12-15T03:22:38.586Z,41.63
2022-12-15T03:25:08.009Z,44.30
2022-12-15T03:27:35.565Z,45.25
2022-12-15T03:30:02.041Z,41.35
2022-12-15T03:32:31.754Z,44.22
2022-12-15T03:34:58.204Z,45.25
2022-12-15T03:37:24.728Z,46.78
2022-12-15T03:39:51.172Z,40.80
2022-12-15T03:42:37.593Z,46.53
2022-12-15T03:45:04.629Z,42.28
2022-12-15T03:47:32.066Z,44.17
2022-12-15T03:49:58.529Z,47.30
2022-12-15T03:52:25.484Z,48.17
2022-12-15T03:54:51.941Z,45.53
2022-12-15T03:57:20.725Z,46.45
2022-12-15T03:59:47.169Z,50.05
2022-12-15T04:02:13.839Z,47.30
2022-12-15T04:04:40.501Z,48.28
2022-12-15T04:07:06.939Z,50.20
2022-12-15T04:09:33.391Z,45.05
2022-12-15T04:11:59.804Z,44.95
2022-12-15T04:14:26.250Z,45.75
2022-12-15T04:16:58.076Z,47.42
2022-12-15T04:19:43.293Z,49.15
2022-12-15T04:22:14.940Z,47.53
2022-12-15T04:25:02.770Z,47.53
2022-12-15T04:27:47.740Z,48.28
2022-12-15T04:30:33.034Z,52.47
2022-12-15T04:33:19.139Z,47.60
2022-12-15T04:36:04.866Z,51.90
2022-12-15T04:38:52.235Z,49.40
2022-12-15T04:41:39.663Z,49.00
2022-12-15T04:44:24.871Z,47.78
2022-12-15T04:47:12.164Z,50.35
2022-12-15T04:49:57.171Z,50.17
2022-12-15T04:52:42.493Z,52.15
2022-12-15T04:55:27.805Z,48.60
2022-12-15T04:58:12.587Z,48.13
2022-12-15T05:00:57.395Z,52.17
2022-12-15T05:03:42.790Z,50.65
2022-12-15T05:06:27.581Z,50.15
2022-12-15T05:09:15.119Z,51.47
2022-12-15T05:11:59.852Z,50.00
2022-12-15T05:14:44.774Z,52.67
2022-12-15T05:17:38.293Z,49.10
2022-12-15T05:20:26.856Z,51.20
2022-12-15T05:23:13.840Z,52.00
2022-12-15T05:25:58.529Z,53.63
2022-12-15T05:28:43.364Z,59.13
2022-12-15T05:31:28.703Z,59.13
2022-12-15T05:34:02.618Z,57.75
2022-12-15T05:36:34.274Z,52.58
2022-12-15T05:39:03.968Z,52.85
2022-12-15T05:41:30.514Z,55.13
2022-12-15T05:43:56.992Z,52.38
2022-12-15T05:46:23.558Z,55.47
2022-12-15T05:48:50.072Z,59.28
2022-12-15T05:51:16.533Z,61.03
2022-12-15T05:53:42.993Z,57.08
2022-12-15T05:56:12.307Z,61.80
2022-12-15T05:58:44.756Z,58.38
2022-12-15T06:01:14.937Z,56.25
2022-12-15T06:03:42.644Z,52.47
2022-12-15T06:06:10.600Z,54.45
2022-12-15T06:08:39.135Z,50.95
2022-12-15T06:11:06.703Z,51.53
2022-12-15T06:13:37.155Z,52.35
2022-12-15T06:16:10.086Z,52.10
2022-12-15T06:18:41.145Z,49.58
2022-12-15T06:21:10.594Z,53.33
2022-12-15T06:23:37.118Z,49.03
2022-12-15T06:26:12.605Z,52.08
2022-12-15T06:28:41.879Z,57.05
2022-12-15T06:31:10.142Z,53.70
2022-12-15T06:33:36.858Z,50.95
2022-12-15T06:36:07.868Z,52.30
2022-12-15T06:38:35.182Z,50.75
2022-12-15T06:41:03.472Z,48.35
2022-12-15T06:43:31.627Z,53.50
2022-12-15T06:45:58.396Z,54.00
2022-12-15T06:48:25.019Z,55.60
2022-12-15T06:50:54.638Z,52.83
2022-12-15T06:53:22.944Z,48.67
2022-12-15T06:55:50.233Z,51.85
2022-12-15T06:58:17.916Z,52.38
2022-12-15T07:00:46.445Z,53.00
2022-12-15T07:03:16.209Z,50.08
2022-12-15T07:05:44.246Z,52.47
2022-12-15T07:08:12.195Z,49.58
2022-12-15T07:10:40.406Z,51.30
2022-12-15T07:13:12.503Z,54.58
2022-12-15T07:15:40.356Z,45.25
2022-12-15T07:18:10.379Z,50.33
2022-12-15T07:20:36.839Z,54.80
2022-12-15T07:23:09.507Z,52.30
2022-12-15T07:25:36.801Z,55.83
2022-12-15T07:28:03.583Z,49.33
2022-12-15T07:30:35.122Z,49.92
2022-12-15T07:33:07.674Z,47.22
2022-12-15T07:35:34.132Z,49.95
2022-12-15T07:38:00.561Z,48.08
2022-12-15T07:40:27.166Z,49.90
2022-12-15T07:42:53.654Z,50.50
2022-12-15T07:45:20.322Z,50.22
2022-12-15T07:47:53.476Z,48.83
2022-12-15T07:50:22.201Z,55.85
2022-12-15T07:52:50.691Z,49.88
2022-12-15T07:55:17.150Z,51.33
2022-12-15T07:57:45.846Z,52.85
2022-12-15T08:00:14.794Z,47.53
2022-12-15T08:02:44.251Z,50.13
2022-12-15T08:05:10.897Z,50.35
2022-12-15T08:07:37.451Z,48.28
2022-12-15T08:10:04.268Z,52.20
2022-12-15T08:12:31.377Z,51.22
2022-12-15T08:14:57.820Z,50.60
2022-12-15T08:17:24.297Z,50.03
2022-12-15T08:19:53.466Z,47.72
2022-12-15T08:22:23.621Z,48.88
2022-12-15T08:24:50.140Z,48.00
2022-12-15T08:27:16.622Z,53.53
2022-12-15T08:29:51.845Z,50.55
2022-12-15T08:32:18.577Z,53.97
2022-12-15T08:34:47.273Z,47.72
2022-12-15T08:37:14.215Z,49.22
2022-12-15T08:39:40.723Z,51.90
2022-12-15T08:42:07.168Z,51.95
2022-12-15T08:44:33.932Z,52.60
2022-12-15T08:47:00.490Z,54.38
2022-12-15T08:49:26.963Z,59.47
2022-12-15T08:51:53.435Z,53.55
2022-12-15T08:54:21.176Z,54.80
2022-12-15T08:56:48.041Z,54.67
2022-12-15T08:59:14.506Z,55.83
2022-12-15T09:01:41.674Z,52.90
2022-12-15T09:04:08.392Z,56.63
2022-12-15T09:06:36.810Z,52.65
2022-12-15T09:09:08.518Z,53.70
2022-12-15T09:11:37.701Z,50.33
2022-12-15T09:14:04.200Z,50.17
2022-12-15T09:16:31.043Z,56.83
2022-12-15T09:18:59.263Z,50.88
2022-12-15T09:21:29.384Z,53.42
2022-12-15T09:24:01.820Z,54.85
2022-12-15T09:26:33.714Z,57.28
2022-12-15T09:29:01.867Z,56.83
2022-12-15T09:31:33.163Z,54.70
2022-12-15T09:34:00.970Z,56.45
2022-12-15T09:36:32.511Z,54.78
2022-12-15T09:39:01.905Z,55.88
2022-12-15T09:41:32.259Z,55.22
2022-12-15T09:44:12.266Z,60.38
2022-12-15T09:46:50.705Z,56.08
2022-12-15T09:49:41.945Z,55.70
2022-12-15T09:52:16.802Z,55.75
2022-12-15T09:54:44.922Z,49.92
2022-12-15T09:57:20.638Z,52.47
2022-12-15T10:00:11.269Z,55.92
2022-12-15T10:02:59.397Z,65.22
2022-12-15T10:06:07.170Z,92.93
2022-12-15T10:08:31.570Z,68.03
2022-12-15T10:11:05.714Z,60.15
2022-12-15T10:13:38.114Z,63.42
2022-12-15T10:16:16.448Z,62.88
2022-12-15T10:18:56.042Z,55.78
2022-12-15T10:21:28.094Z,60.58
2022-12-15T10:24:08.030Z,54.42
2022-12-15T10:26:35.440Z,51.00
2022-12-15T10:29:20.661Z,52.35
2022-12-15T10:31:58.085Z,53.80
2022-12-15T10:34:37.922Z,56.65
2022-12-15T10:37:05.343Z,51.00
2022-12-15T10:39:41.050Z,52.97
2022-12-15T10:42:16.828Z,59.88
2022-12-15T10:44:50.544Z,60.10
2022-12-15T10:47:32.476Z,56.72
2022-12-15T10:50:24.990Z,52.95
2022-12-15T10:52:51.892Z,54.63
2022-12-15T10:55:41.541Z,55.65
2022-12-15T10:58:20.668Z,58.28
2022-12-15T11:00:50.917Z,58.17
2022-12-15T11:03:26.789Z,57.45
2022-12-15T11:05:55.949Z,60.33
2022-12-15T11:08:24.446Z,64.10
2022-12-15T11:11:15.720Z,56.72
2022-12-15T11:14:02.607Z,58.53
2022-12-15T11:16:31.466Z,59.47
2022-12-15T11:19:26.190Z,61.20
2022-12-15T11:21:59.916Z,61.33
2022-12-15T11:24:49.530Z,61.15
2022-12-15T11:27:28.484Z,58.80
2022-12-15T11:30:02.949Z,58.83
2022-12-15T11:32:34.056Z,60.10
2022-12-15T11:35:00.996Z,58.50
2022-12-15T11:37:34.530Z,62.25
2022-12-15T11:40:41.049Z,64.30
2022-12-15T11:46:17.383Z,64.40
2022-12-15T11:49:33.843Z,60.50
2022-12-15T11:52:24.091Z,68.72
2022-12-15T11:55:07.901Z,65.97
2022-12-15T11:57:53.058Z,66.75
2022-12-15T12:00:21.429Z,65.95
2022-12-15T12:03:06.712Z,67.00
2022-12-15T12:05:42.015Z,63.65
2022-12-15T12:08:38.977Z,60.92
2022-12-15T12:11:23.784Z,63.25
2022-12-15T12:14:23.146Z,61.42
2022-12-15T12:17:17.367Z,62.85
2022-12-15T12:22:39.794Z,69.47
2022-12-15T12:25:18.393Z,66.65
2022-12-15T12:28:00.196Z,66.30
2022-12-15T12:30:33.329Z,67.32
2022-12-15T12:33:16.231Z,63.92
2022-12-15T12:35:47.315Z,67.20
2022-12-15T12:38:20.211Z,78.53
2022-12-15T12:41:10.707Z,78.47
2022-12-15T12:43:50.957Z,74.75
2022-12-15T12:46:32.894Z,79.07
2022-12-15T12:49:22.831Z,72.68
2022-12-15T12:51:54.811Z,68.17
2022-12-15T12:54:36.489Z,78.10
2022-12-15T12:57:28.876Z,73.95
2022-12-15T13:00:12.937Z,73.85
2022-12-15T13:02:47.024Z,71.57
2022-12-15T13:05:35.509Z,88.93
2022-12-15T13:08:05.126Z,75.65
2022-12-15T13:10:37.197Z,81.10
2022-12-15T13:13:19.037Z,72.80
2022-12-15T13:15:51.010Z,71.25
2022-12-15T13:18:19.617Z,72.80
2022-12-15T13:20:48.904Z,69.43
2022-12-15T13:23:37.052Z,71.25
2022-12-15T13:26:03.775Z,71.75
2022-12-15T13:28:36.081Z,73.00
2022-12-15T13:31:19.092Z,67.13
2022-12-15T13:33:58.502Z,70.93
2022-12-15T13:36:37.896Z,78.10
2022-12-15T13:39:06.010Z,160.25
2022-12-15T13:41:33.286Z,178.65
2022-12-15T13:44:00.501Z,155.70
2022-12-15T13:46:32.772Z,82.90
2022-12-15T13:49:14.165Z,75.32
2022-12-15T13:51:45.892Z,68.32
2022-12-15T13:54:25.025Z,65.32
2022-12-15T13:56:55.641Z,64.32
2022-12-15T13:59:30.913Z,64.43
2022-12-15T14:01:59.780Z,65.35
2022-12-15T14:04:26.672Z,64.53
2022-12-15T14:07:02.159Z,66.20
2022-12-15T14:09:34.119Z,62.08
2022-12-15T14:12:05.171Z,62.78
2022-12-15T14:14:35.149Z,67.32
2022-12-15T14:17:06.539Z,65.07
2022-12-15T14:19:39.253Z,62.30
2022-12-15T14:22:29.660Z,67.30
2022-12-15T14:25:14.471Z,65.53
2022-12-15T14:27:41.011Z,64.40
2022-12-15T14:30:14.601Z,62.00
2022-12-15T14:35:23.472Z,62.15
2022-12-15T14:37:50.372Z,62.50
2022-12-15T14:40:21.379Z,76.15
2022-12-15T14:42:54.806Z,65.43
2022-12-15T14:45:26.377Z,80.38
2022-12-15T14:48:39.354Z,81.13
2022-12-15T14:50:53.518Z,83.80
2022-12-15T14:53:23.456Z,79.95
2022-12-15T14:55:50.141Z,73.97
2022-12-15T14:58:29.600Z,70.72
2022-12-15T15:00:57.187Z,65.10
2022-12-15T15:03:37.094Z,63.13
2022-12-15T15:06:17.598Z,66.50
2022-12-15T15:08:53.782Z,64.32
2022-12-15T15:11:29.977Z,67.35
2022-12-15T15:14:00.255Z,62.58
2022-12-15T15:16:27.474Z,71.95
2022-12-15T15:18:56.283Z,66.88
2022-12-15T15:21:34.031Z,64.20
2022-12-15T15:24:03.688Z,64.22
2022-12-15T15:26:31.307Z,64.03
2022-12-15T15:28:58.455Z,70.55
2022-12-15T15:31:24.994Z,67.15
2022-12-15T15:33:52.740Z,64.20
2022-12-15T15:36:21.499Z,63.63
2022-12-15T15:38:48.054Z,65.10
2022-12-15T15:41:16.801Z,65.93
2022-12-15T15:43:43.693Z,60.75
2022-12-15T15:46:18.028Z,61.47
2022-12-15T15:48:53.146Z,80.95
2022-12-15T15:51:20.616Z,79.75
2022-12-15T15:53:47.738Z,71.88
2022-12-15T15:56:18.597Z,69.20
2022-12-15T15:58:45.272Z,67.22
2022-12-15T16:01:13.542Z,72.68
2022-12-15T16:03:41.335Z,82.03
2022-12-15T16:06:17.398Z,83.55
2022-12-15T16:08:50.183Z,88.40
2022-12-15T16:11:20.074Z,76.95
2022-12-15T16:13:46.799Z,65.43
2022-12-15T16:16:19.496Z,80.65
2022-12-15T16:18:46.271Z,76.00
2022-12-15T16:21:14.538Z,71.30
2022-12-15T16:23:44.920Z,69.65
2022-12-15T16:26:27.122Z,67.15
2022-12-15T16:28:56.264Z,68.70
2022-12-15T16:31:41.742Z,73.40
2022-12-15T16:34:09.087Z,70.40
2022-12-15T16:36:35.943Z,73.85
2022-12-15T16:39:04.053Z,68.45
2022-12-15T16:41:30.591Z,79.05
2022-12-15T16:43:57.127Z,81.10
2022-12-15T16:46:26.045Z,76.75
2022-12-15T16:48:52.663Z,83.57
2022-12-15T16:51:37.279Z,70.15
2022-12-15T16:54:04.248Z,71.40
2022-12-15T16:56:30.713Z,67.95
2022-12-15T16:59:15.610Z,71.47
2022-12-15T17:01:44.543Z,69.90
2022-12-15T17:04:11.752Z,73.57
2022-12-15T17:06:38.782Z,75.57
2022-12-15T17:09:07.189Z,73.07
2022-12-15T17:11:33.756Z,82.18
2022-12-15T17:14:00.883Z,70.20
2022-12-15T17:16:28.486Z,78.22
2022-12-15T17:18:55.011Z,76.20
2022-12-15T17:21:28.223Z,82.80
2022-12-15T17:24:01.893Z,79.35
2022-12-15T17:26:30.932Z,81.32
2022-12-15T17:29:02.088Z,76.10
2022-12-15T17:31:35.681Z,71.38
2022-12-15T17:34:22.694Z,74.13
2022-12-15T17:36:49.327Z,79.28
2022-12-15T17:39:18.206Z,74.20
2022-12-15T17:42:04.335Z,69.30
2022-12-15T17:44:38.301Z,70.82
2022-12-15T17:47:07.727Z,73.88
2022-12-15T17:49:37.732Z,70.93
2022-12-15T17:52:24.329Z,71.80
2022-12-15T17:54:54.321Z,78.72
2022-12-15T17:57:20.927Z,69.38
2022-12-15T17:59:50.896Z,67.55
2022-12-15T18:02:19.967Z,68.05
2022-12-15T18:04:49.959Z,63.40
2022-12-15T18:07:22.624Z,63.42
2022-12-15T18:09:53.142Z,60.97
2022-12-15T18:12:25.713Z,59.67
2022-12-15T18:14:53.046Z,60.05
2022-12-15T18:17:20.101Z,58.50
2022-12-15T18:19:48.934Z,61.22
2022-12-15T18:22:21.113Z,60.85
2022-12-15T18:24:48.934Z,58.13
2022-12-15T18:27:26.654Z,60.75
2022-12-15T18:29:53.801Z,60.35
2022-12-15T18:32:23.309Z,59.65
2022-12-15T18:34:50.514Z,60.72
2022-12-15T18:37:19.084Z,61.00
2022-12-15T18:39:46.408Z,57.55
2022-12-15T18:42:18.039Z,61.63
2022-12-15T18:44:47.981Z,62.60
2022-12-15T18:47:19.961Z,61.67
2022-12-15T18:49:46.643Z,63.85
2022-12-15T18:52:20.067Z,61.78
2022-12-15T18:54:48.556Z,65.45
2022-12-15T18:57:32.146Z,64.20
2022-12-15T19:00:08.033Z,64.32
2022-12-15T19:02:34.664Z,62.58
2022-12-15T19:05:01.528Z,67.60
2022-12-15T19:07:28.216Z,88.28
2022-12-15T19:09:54.896Z,70.18
2022-12-15T19:12:21.559Z,71.70
2022-12-15T19:14:55.025Z,64.57
2022-12-15T19:17:42.571Z,67.25
2022-12-15T19:20:38.330Z,67.57
2022-12-15T19:23:06.730Z,74.70
2022-12-15T19:25:34.253Z,70.75
2022-12-15T19:28:01.495Z,75.15
2022-12-15T19:30:33.194Z,67.22
2022-12-15T19:33:01.252Z,74.13
2022-12-15T19:35:28.270Z,71.03
2022-12-15T19:37:58.433Z,64.93
2022-12-15T19:40:27.895Z,72.22
2022-12-15T19:42:55.480Z,69.30
2022-12-15T19:45:31.445Z,66.70
2022-12-15T19:47:58.555Z,68.72
2022-12-15T19:50:30.996Z,67.72
2022-12-15T19:53:00.965Z,70.43
2022-12-15T19:55:32.732Z,67.50
2022-12-15T19:58:00.837Z,67.78
2022-12-15T20:00:27.495Z,64.78
2022-12-15T20:02:55.679Z,63.78
2022-12-15T20:05:24.421Z,65.88
2022-12-15T20:07:54.947Z,66.15
2022-12-15T20:10:31.911Z,65.75
2022-12-15T20:13:00.467Z,66.03
2022-12-15T20:15:27.281Z,66.25
2022-12-15T20:17:56.653Z,64.15
2022-12-15T20:20:25.635Z,65.22
2022-12-15T20:22:55.653Z,67.88
2022-12-15T20:25:35.278Z,64.13
2022-12-15T20:28:02.712Z,63.75
2022-12-15T20:30:35.148Z,65.75
2022-12-15T20:33:03.848Z,62.72
2022-12-15T20:35:33.172Z,63.42
2022-12-15T20:38:12.260Z,64.55
2022-12-15T20:40:41.065Z,63.88
2022-12-15T20:43:17.202Z,67.72
2022-12-15T20:45:46.429Z,59.45
2022-12-15T20:48:15.150Z,60.17
2022-12-15T20:50:50.674Z,64.85
2022-12-15T20:53:21.339Z,62.15
2022-12-15T20:55:49.950Z,61.88
2022-12-15T20:58:17.662Z,60.80
2022-12-15T21:00:48.533Z,62.17
2022-12-15T21:03:24.619Z,63.05
2022-12-15T21:05:56.968Z,60.05
2022-12-15T21:08:29.754Z,62.85
2022-12-15T21:11:13.473Z,60.40
2022-12-15T21:13:40.046Z,60.13
2022-12-15T21:16:07.126Z,65.40
2022-12-15T21:19:17.890Z,60.40
2022-12-15T21:21:27.007Z,65.13
2022-12-15T21:23:53.721Z,64.78
2022-12-15T21:26:24.354Z,62.15
2022-12-15T21:28:55.592Z,63.28
2022-12-15T21:31:22.670Z,63.13
2022-12-15T21:33:49.282Z,60.58
2022-12-15T21:36:18.467Z,60.10
2022-12-15T21:38:50.874Z,66.15
2022-12-15T21:41:21.116Z,63.13
2022-12-15T21:43:50.924Z,63.35
2022-12-15T21:46:27.554Z,62.55
2022-12-15T21:49:14.241Z,65.03
2022-12-15T21:51:43.836Z,63.58
2022-12-15T21:54:19.646Z,63.40
2022-12-15T21:56:47.605Z,63.45
2022-12-15T21:59:21.445Z,67.82
2022-12-15T22:01:49.133Z,63.05
2022-12-15T22:04:19.531Z,69.03
2022-12-15T22:06:50.449Z,69.43
2022-12-15T22:09:18.548Z,63.35
2022-12-15T22:11:50.919Z,64.40
2022-12-15T22:14:34.125Z,64.53
2022-12-15T22:17:11.604Z,70.80
2022-12-15T22:19:38.095Z,66.55
2022-12-15T22:22:04.831Z,63.85
2022-12-15T22:24:31.273Z,65.20
2022-12-15T22:26:58.395Z,66.13
2022-12-15T22:29:25.327Z,62.15
2022-12-15T22:31:52.028Z,62.75
2022-12-15T22:34:21.520Z,65.90
2022-12-15T22:36:49.244Z,68.63
2022-12-15T22:39:18.728Z,69.78
2022-12-15T22:41:47.960Z,69.68
2022-12-15T22:44:26.829Z,97.22
2022-12-15T22:46:55.764Z,82.78
2022-12-15T22:49:28.688Z,75.43
2022-12-15T22:51:55.246Z,77.68
2022-12-15T22:54:25.561Z,66.18
2022-12-15T22:56:59.059Z,77.50
2022-12-15T22:59:32.485Z,73.63
2022-12-15T23:02:02.071Z,70.57
2022-12-15T23:04:30.374Z,75.75
2022-12-15T23:07:01.239Z,77.20
2022-12-15T23:09:27.883Z,65.22
2022-12-15T23:11:54.998Z,70.18
2022-12-15T23:14:41.534Z,63.40
2022-12-15T23:17:08.327Z,89.75
2022-12-15T23:19:37.090Z,58.85
2022-12-15T23:22:03.585Z,55.08
2022-12-15T23:24:31.274Z,53.67
2022-12-15T23:26:57.740Z,57.65
2022-12-15T23:29:24.854Z,56.92
2022-12-15T23:31:51.385Z,71.40
2022-12-15T23:34:18.588Z,57.50
2022-12-15T23:36:45.078Z,67.55
2022-12-15T23:39:14.159Z,56.22
2022-12-15T23:41:40.577Z,58.00
2022-12-15T23:44:07.292Z,60.00
2022-12-15T23:46:34.036Z,56.38
2022-12-15T23:49:02.289Z,52.78
2022-12-15T23:51:31.199Z,52.05
2022-12-15T23:53:57.681Z,49.50
2022-12-15T23:56:25.137Z,54.80
2022-12-15T23:58:57.202Z,52.15
